DLH1803 EHAM-EDDL
Flight info
| Callsign | DLH1803 |
|---|---|
| Flight time | N/A |
| Altitude | 17000 |
| Route | ARNEM T196 TEBRO P62 PISAP PISAP1A |
| Aircraft | A320/M-SDE3FGHIRWY/LB1 |
Departure
| Time | 2026-04-28 14:41 |
|---|---|
| Airport | Amsterdam Airport Schiphol (EHAM) |
Arrival
| Time | N/A |
|---|---|
| Airport | Düsseldorf Airport (EDDL) |
| Time | Latitude | Longitude | Altitude | Speed | Heading |
|---|---|---|---|---|---|
| 2026-04-28 11:49 | 52.30477 | 4.76294 | -1 ft | 0 kts | 238° |
| 2026-04-28 14:24 | 52.30478 | 4.76296 | 264 ft | 2 kts | 238° |
| 2026-04-28 14:24 | 52.30492 | 4.76331 | -266 ft | 4 kts | 230° |
| 2026-04-28 14:25 | 52.30510 | 4.76353 | 41 ft | 3 kts | 166° |
| 2026-04-28 14:25 | 52.30513 | 4.76352 | -1 ft | 0 kts | 161° |
| 2026-04-28 14:27 | 52.30508 | 4.76356 | 41 ft | 5 kts | 155° |
| 2026-04-28 14:27 | 52.30476 | 4.76394 | -1 ft | 5 kts | 144° |
| 2026-04-28 14:28 | 52.30445 | 4.76428 | -1 ft | 7 kts | 147° |
| 2026-04-28 14:28 | 52.30399 | 4.76474 | -1 ft | 7 kts | 149° |
| 2026-04-28 14:28 | 52.30361 | 4.76512 | -1 ft | 7 kts | 148° |
| 2026-04-28 14:28 | 52.30326 | 4.76559 | -1 ft | 8 kts | 118° |
| 2026-04-28 14:29 | 52.30354 | 4.76677 | -1 ft | 13 kts | 56° |
| 2026-04-28 14:29 | 52.30407 | 4.76814 | -1 ft | 15 kts | 58° |
| 2026-04-28 14:29 | 52.30463 | 4.76961 | -1 ft | 15 kts | 57° |
| 2026-04-28 14:29 | 52.30523 | 4.77114 | -1 ft | 16 kts | 58° |
| 2026-04-28 14:30 | 52.30586 | 4.77278 | -1 ft | 18 kts | 58° |
| 2026-04-28 14:30 | 52.30650 | 4.77439 | -1 ft | 16 kts | 43° |
| 2026-04-28 14:30 | 52.30760 | 4.77461 | -1 ft | 17 kts | 3° |
| 2026-04-28 14:30 | 52.30881 | 4.77471 | -1 ft | 18 kts | 4° |
| 2026-04-28 14:31 | 52.31006 | 4.77484 | -1 ft | 18 kts | 4° |
| 2026-04-28 14:31 | 52.31136 | 4.77497 | -1 ft | 19 kts | 5° |
| 2026-04-28 14:31 | 52.31267 | 4.77503 | -1 ft | 19 kts | 350° |
| 2026-04-28 14:31 | 52.31369 | 4.77366 | -1 ft | 20 kts | 311° |
| 2026-04-28 14:32 | 52.31464 | 4.77185 | -1 ft | 22 kts | 309° |
| 2026-04-28 14:32 | 52.31480 | 4.76980 | -1 ft | 13 kts | 268° |
| 2026-04-28 14:32 | 52.31479 | 4.76942 | -1 ft | 0 kts | 267° |
| 2026-04-28 14:33 | 52.31479 | 4.76941 | -1 ft | 1 kts | 267° |
| 2026-04-28 14:33 | 52.31476 | 4.76850 | -1 ft | 12 kts | 267° |
| 2026-04-28 14:33 | 52.31472 | 4.76717 | -1 ft | 11 kts | 267° |
| 2026-04-28 14:33 | 52.31468 | 4.76599 | -1 ft | 10 kts | 267° |
| 2026-04-28 14:34 | 52.31458 | 4.76304 | -1 ft | 14 kts | 267° |
| 2026-04-28 14:34 | 52.31451 | 4.76097 | -1 ft | 25 kts | 266° |
| 2026-04-28 14:34 | 52.31443 | 4.75908 | -1 ft | 24 kts | 267° |
| 2026-04-28 14:35 | 52.31430 | 4.75550 | -1 ft | 24 kts | 267° |
| 2026-04-28 14:35 | 52.31420 | 4.75285 | -1 ft | 22 kts | 266° |
| 2026-04-28 14:35 | 52.31412 | 4.75040 | -1 ft | 21 kts | 267° |
| 2026-04-28 14:35 | 52.31405 | 4.74809 | -1 ft | 20 kts | 267° |
| 2026-04-28 14:36 | 52.31429 | 4.74658 | -1 ft | 6 kts | 1° |
| 2026-04-28 14:36 | 52.31487 | 4.74670 | -1 ft | 14 kts | 356° |
| 2026-04-28 14:36 | 52.31567 | 4.74662 | -1 ft | 0 kts | 357° |
| 2026-04-28 14:38 | 52.31578 | 4.74661 | -1 ft | 4 kts | 356° |
| 2026-04-28 14:39 | 52.31641 | 4.74676 | -1 ft | 12 kts | 25° |
| 2026-04-28 14:39 | 52.31668 | 4.74774 | -1 ft | 0 kts | 88° |
| 2026-04-28 14:40 | 52.31671 | 4.74877 | -2 ft | 36 kts | 87° |
| 2026-04-28 14:40 | 52.31699 | 4.75677 | -1 ft | 101 kts | 87° |
| 2026-04-28 14:41 | 52.31750 | 4.77116 | 1 ft | 151 kts | 87° |
| 2026-04-28 14:41 | 52.31806 | 4.78856 | 576 ft | 151 kts | 84° |
| 2026-04-28 14:41 | 52.31868 | 4.80563 | 1345 ft | 151 kts | 83° |
| 2026-04-28 14:41 | 52.31930 | 4.82388 | 1782 ft | 172 kts | 85° |
| 2026-04-28 14:42 | 52.31977 | 4.84444 | 2149 ft | 196 kts | 85° |
| 2026-04-28 14:42 | 52.31958 | 4.86829 | 2563 ft | 225 kts | 98° |
| 2026-04-28 14:42 | 52.31327 | 4.89291 | 3269 ft | 241 kts | 114° |
| 2026-04-28 14:42 | 52.30546 | 4.91702 | 4314 ft | 240 kts | 112° |
| 2026-04-28 14:43 | 52.29868 | 4.94230 | 5181 ft | 245 kts | 110° |
| 2026-04-28 14:43 | 52.29277 | 4.96872 | 5951 ft | 251 kts | 105° |
| 2026-04-28 14:43 | 52.28821 | 4.99636 | 6193 ft | 252 kts | 103° |
| 2026-04-28 14:43 | 52.28383 | 5.02421 | 6363 ft | 257 kts | 103° |
| 2026-04-28 14:44 | 52.28242 | 5.03312 | 6589 ft | 259 kts | 103° |